Terminal Aerodrome Forecast
Issued by NWS

Home | Current Version | Previous Version | Text Only | Print | Product List | Glossary On
Versions: 1 2 3 4 5 6 7 8 9 10 11 12 13 14 15 16 17 18 19 20 21 22 23 24 25
000
FTUS44 KCRP 231730
TAFALI
TAF
KALI 231730Z 2318/2418 15013G19KT P6SM SCT035 OVC050
      TEMPO 2318/2322 BKN035 OVC050
     FM232200 14014G20KT P6SM BKN050
     FM240200 14010KT P6SM SCT015 BKN050
     FM240600 15007KT P6SM BKN015
     FM240800 15005KT 6SM BR OVC008
     FM241500 17010KT P6SM OVC015=

USA.gov is the U.S. government's official web portal to all federal, state and local government web resources and services.